Pagrindinis puslapis
METAR-TAF:

METAR-TAF

Oro uostai :

Noatak, Aliaska, Jungtinės Amerikos Valstijos

platuma: 67-34N, ilguma: 162-59W, Aukštis: 27 m

Dabartinis oras

Ataskaita buvo paskelbta 16 minutes, ne 22:56 UTC
Vėjas 13 kt iš Pietų
Temperatūra 12°C
Drėgmė 62%
Slėgis 1015 hPa
Matomumas: 16.1 km
Giedras dangus

METAR: PAWN 052256Z AUTO 17013KT 10SM CLR 12/05 A2997 RMK AO2 SLP161 T01170050

Laikas: 15:12 (23:12 UTC)


TAF: trūkstamas

Orai ataskaitas ir orų prognozės (METAR, TAF).

turimą stotys yra geltonos ir raudonos taškus žemėlapyje.

Perkelti pele per norėdami pamatyti stoties vardą.

Tada spustelėkite, norėdami matyti oro stebėjimo ir prognozės.

Norėdami pakeisti žemėlapį: spustelėkite ant žalios mygtukų su juodo kryžiaus žemyn,; žalią mygtuką su brūkšneliu, jei norite nutolinti; arba žalių rodyklių gretimoms žemėlapius.


METAR-TAF: